< < Back
Terminal Aerodrome Forecast


Current Version              Previous Versions:   1  2  3  4  5  6  7  8  9  

Terminal Aerodrome Forecast

444
FTUS42 KJAX 081120
TAFJAX
TAF
KJAX 081120Z 0812/0912 24006KT P6SM SKC
     FM081600 24018G28KT P6SM FEW050 SCT250
     FM082200 25015G25KT P6SM SCT030 BKN060
     FM090400 28015G25KT P6SM FEW050 SCT250=

Latest METAR

797
SAUS80 KWBC 091000
MTRJAX
METAR KJAX 090956Z 26010KT 10SM FEW095 06/M03 A2991 RMK AO2 SLP128
T00611028 $


USA.gov is the U.S. government's official web portal to all federal, state and local government web resources and services.